createdAt,value
2018-03-07T00:00:46.129Z,83.23
2018-03-07T00:01:46.134Z,82.86
2018-03-07T00:02:46.143Z,83.14
2018-03-07T00:03:46.148Z,82.76
2018-03-07T00:04:46.171Z,83.23
2018-03-07T00:05:46.150Z,83.52
2018-03-07T00:06:46.167Z,83.23
2018-03-07T00:07:46.163Z,83.33
2018-03-07T00:08:46.177Z,83.14
2018-03-07T00:09:46.175Z,83.23
2018-03-07T00:10:46.175Z,83.23
2018-03-07T00:11:46.177Z,83.14
2018-03-07T00:12:46.212Z,83.23
2018-03-07T00:13:46.176Z,83.14
2018-03-07T00:14:46.191Z,83.33
2018-03-07T00:15:46.190Z,82.95
2018-03-07T00:16:46.198Z,83.04
2018-03-07T00:17:46.225Z,83.04
2018-03-07T00:18:46.197Z,82.76
2018-03-07T00:19:46.200Z,82.86
2018-03-07T00:20:46.228Z,83.04
2018-03-07T00:21:46.219Z,83.14
2018-03-07T00:22:46.215Z,83.04
2018-03-07T00:23:46.225Z,82.76
2018-03-07T00:24:46.233Z,82.28
2018-03-07T00:25:46.226Z,82.09
2018-03-07T00:26:46.236Z,82.67
2018-03-07T00:27:46.234Z,82.38
2018-03-07T00:28:46.234Z,82.48
2018-03-07T00:29:46.237Z,82.67
2018-03-07T00:30:46.254Z,82.48
2018-03-07T00:31:46.249Z,82.76
2018-03-07T00:32:47.124Z,82.95
2018-03-07T00:33:46.263Z,83.04
2018-03-07T00:34:46.272Z,83.14
2018-03-07T00:35:46.269Z,83.04
2018-03-07T00:36:46.271Z,83.23
2018-03-07T00:37:46.267Z,83.33
2018-03-07T00:38:46.292Z,83.42
2018-03-07T00:39:46.285Z,83.90
2018-03-07T00:40:46.282Z,83.71
2018-03-07T00:41:46.290Z,83.62
2018-03-07T00:42:46.288Z,83.42
2018-03-07T00:43:46.302Z,84.00
2018-03-07T00:44:46.359Z,83.90
2018-03-07T00:45:46.299Z,83.62
2018-03-07T00:46:46.304Z,83.62
2018-03-07T00:47:46.331Z,83.33
2018-03-07T00:48:46.314Z,83.04
2018-03-07T00:49:46.325Z,82.95
2018-03-07T00:50:46.315Z,83.14
2018-03-07T00:51:46.322Z,83.23
2018-03-07T00:52:46.328Z,83.23
2018-03-07T00:53:46.330Z,83.04
2018-03-07T00:54:46.334Z,82.86
2018-03-07T00:55:46.339Z,83.04
2018-03-07T00:56:46.352Z,83.33
2018-03-07T00:57:46.347Z,83.23
2018-03-07T00:58:46.350Z,83.23
2018-03-07T00:59:46.356Z,83.14
2018-03-07T01:00:46.358Z,83.23
2018-03-07T01:01:46.374Z,83.23
2018-03-07T01:02:47.044Z,83.33
2018-03-07T01:03:46.366Z,83.33
2018-03-07T01:04:46.368Z,82.95
2018-03-07T01:05:46.380Z,83.14
2018-03-07T01:06:46.376Z,82.76
2018-03-07T01:07:46.413Z,83.04
2018-03-07T01:08:46.382Z,83.33
2018-03-07T01:09:46.387Z,82.86
2018-03-07T01:10:46.394Z,83.23
2018-03-07T01:11:46.404Z,82.67
2018-03-07T01:12:46.408Z,83.14
2018-03-07T01:13:46.410Z,82.86
2018-03-07T01:14:46.418Z,83.14
2018-03-07T01:15:46.415Z,82.86
2018-03-07T01:16:46.430Z,83.33
2018-03-07T01:17:46.437Z,82.95
2018-03-07T01:18:46.430Z,83.04
2018-03-07T01:19:46.460Z,83.00
2018-03-07T01:20:46.438Z,83.33
2018-03-07T01:21:46.469Z,83.39
2018-03-07T01:22:46.445Z,83.67
2018-03-07T01:23:46.452Z,83.39
2018-03-07T01:24:46.463Z,83.67
2018-03-07T01:25:46.453Z,83.86
2018-03-07T01:26:46.462Z,84.05
2018-03-07T01:27:46.468Z,83.95
2018-03-07T01:28:46.484Z,84.24
2018-03-07T01:29:46.484Z,84.14
2018-03-07T01:30:46.482Z,83.95
2018-03-07T01:31:46.472Z,84.05
2018-03-07T01:32:46.480Z,83.95
2018-03-07T01:33:46.483Z,84.52
2018-03-07T01:34:46.485Z,84.33
2018-03-07T01:35:46.485Z,84.14
2018-03-07T01:36:46.524Z,85.19
2018-03-07T01:37:46.500Z,84.72
2018-03-07T01:38:46.506Z,84.72
2018-03-07T01:39:46.507Z,84.72
2018-03-07T01:40:46.507Z,84.81
2018-03-07T01:41:46.507Z,84.91
2018-03-07T01:42:46.517Z,84.81
2018-03-07T01:43:46.531Z,84.91
2018-03-07T01:44:46.519Z,84.91
2018-03-07T01:45:46.533Z,84.62
2018-03-07T01:46:46.542Z,84.52
2018-03-07T01:47:46.545Z,84.72
2018-03-07T01:48:46.543Z,84.72
2018-03-07T01:49:46.542Z,84.62
2018-03-07T01:50:46.600Z,84.72
2018-03-07T01:51:46.558Z,84.72
2018-03-07T01:52:46.555Z,84.81
2018-03-07T01:53:46.614Z,84.81
2018-03-07T01:54:46.598Z,84.43
2018-03-07T01:55:46.567Z,84.72
2018-03-07T01:56:46.570Z,85.38
2018-03-07T01:57:46.573Z,85.38
2018-03-07T01:58:46.573Z,85.10
2018-03-07T01:59:46.581Z,85.10
2018-03-07T02:00:46.591Z,85.19
2018-03-07T02:01:46.587Z,85.66
2018-03-07T02:02:46.593Z,85.28
2018-03-07T02:03:46.599Z,85.10
2018-03-07T02:04:46.591Z,85.38
2018-03-07T02:05:46.597Z,85.57
2018-03-07T02:06:46.604Z,85.19
2018-03-07T02:07:46.610Z,85.19
2018-03-07T02:08:46.605Z,85.66
2018-03-07T02:09:46.612Z,85.24
2018-03-07T02:10:46.620Z,85.14
2018-03-07T02:11:46.618Z,85.28
2018-03-07T02:12:46.628Z,85.19
2018-03-07T02:13:46.653Z,85.14
2018-03-07T02:14:46.652Z,85.10
2018-03-07T02:15:46.634Z,85.10
2018-03-07T02:16:46.653Z,85.10
2018-03-07T02:17:46.650Z,85.10
2018-03-07T02:18:46.657Z,85.28
2018-03-07T02:19:46.668Z,85.28
2018-03-07T02:20:46.702Z,85.10
2018-03-07T02:21:46.653Z,85.66
2018-03-07T02:22:46.663Z,85.57
2018-03-07T02:23:46.672Z,85.57
2018-03-07T02:24:46.712Z,85.57
2018-03-07T02:25:46.678Z,85.66
2018-03-07T02:26:46.681Z,85.47
2018-03-07T02:27:46.692Z,85.28
2018-03-07T02:28:46.693Z,86.05
2018-03-07T02:29:46.684Z,85.76
2018-03-07T02:30:46.694Z,86.24
2018-03-07T02:31:46.700Z,86.05
2018-03-07T02:32:46.700Z,86.05
2018-03-07T02:33:46.704Z,86.61
2018-03-07T02:34:46.778Z,86.52
2018-03-07T02:35:46.718Z,86.52
2018-03-07T02:36:46.717Z,86.71
2018-03-07T02:37:46.719Z,86.99
2018-03-07T02:38:46.726Z,86.99
2018-03-07T02:39:46.721Z,86.43
2018-03-07T02:40:46.729Z,86.90
2018-03-07T02:41:46.742Z,86.61
2018-03-07T02:42:46.742Z,86.33
2018-03-07T02:43:46.739Z,86.33
2018-03-07T02:44:46.748Z,86.43
2018-03-07T02:45:46.754Z,86.33
2018-03-07T02:46:46.748Z,86.24
2018-03-07T02:47:46.750Z,86.14
2018-03-07T02:48:46.757Z,86.14
2018-03-07T02:49:46.759Z,86.24
2018-03-07T02:50:46.771Z,86.14
2018-03-07T02:51:46.773Z,86.71
2018-03-07T02:52:46.803Z,86.24
2018-03-07T02:53:46.779Z,86.24
2018-03-07T02:54:46.786Z,86.24
2018-03-07T02:55:46.820Z,86.14
2018-03-07T02:56:46.786Z,86.52
2018-03-07T02:57:46.788Z,86.99
2018-03-07T02:58:46.798Z,86.99
2018-03-07T02:59:46.805Z,86.71
2018-03-07T03:00:46.805Z,86.71
2018-03-07T03:01:46.807Z,86.80
2018-03-07T03:02:46.813Z,86.43
2018-03-07T03:03:46.820Z,86.33
2018-03-07T03:04:46.918Z,86.33
2018-03-07T03:05:46.822Z,86.05
2018-03-07T03:06:46.826Z,86.24
2018-03-07T03:07:46.837Z,86.71
2018-03-07T03:08:46.848Z,86.33
2018-03-07T03:09:46.837Z,86.67
2018-03-07T03:10:47.573Z,87.52
2018-03-07T03:11:46.844Z,87.81
2018-03-07T03:12:46.848Z,87.52
2018-03-07T03:13:46.853Z,87.43
2018-03-07T03:14:46.849Z,87.34
2018-03-07T03:15:46.857Z,87.43
2018-03-07T03:16:46.858Z,87.24
2018-03-07T03:17:46.881Z,87.90
2018-03-07T03:18:46.862Z,87.81
2018-03-07T03:19:46.872Z,87.52
2018-03-07T03:20:46.872Z,87.34
2018-03-07T03:21:46.888Z,88.09
2018-03-07T03:22:46.883Z,87.90
2018-03-07T03:23:46.883Z,87.24
2018-03-07T03:24:46.893Z,87.71
2018-03-07T03:25:46.895Z,88.00
2018-03-07T03:26:46.920Z,87.62
2018-03-07T03:27:46.897Z,87.43
2018-03-07T03:28:46.905Z,87.52
2018-03-07T03:29:46.905Z,87.34
2018-03-07T03:30:46.972Z,87.71
2018-03-07T03:31:46.916Z,87.90
2018-03-07T03:32:46.922Z,87.81
2018-03-07T03:33:46.924Z,87.71
2018-03-07T03:34:46.931Z,87.43
2018-03-07T03:35:46.928Z,88.00
2018-03-07T03:36:46.938Z,87.43
2018-03-07T03:37:46.952Z,87.71
2018-03-07T03:38:46.931Z,88.76
2018-03-07T03:39:46.959Z,88.67
2018-03-07T03:40:46.946Z,89.23
2018-03-07T03:41:46.960Z,89.23
2018-03-07T03:42:46.942Z,89.80
2018-03-07T03:43:46.968Z,89.67
2018-03-07T03:44:46.955Z,89.86
2018-03-07T03:45:46.965Z,89.86
2018-03-07T03:46:46.976Z,90.09
2018-03-07T03:47:46.988Z,89.52
2018-03-07T03:48:46.967Z,89.80
2018-03-07T03:49:46.974Z,89.80
2018-03-07T03:50:46.978Z,89.61
2018-03-07T03:51:46.984Z,89.33
2018-03-07T03:52:46.990Z,89.52
2018-03-07T03:53:46.990Z,89.04
2018-03-07T03:54:46.993Z,88.95
2018-03-07T03:55:47.022Z,89.23
2018-03-07T03:56:47.024Z,89.23
2018-03-07T03:57:47.005Z,88.95
2018-03-07T03:58:47.015Z,89.14
2018-03-07T03:59:47.017Z,89.14
2018-03-07T04:00:47.017Z,89.14
2018-03-07T04:01:47.006Z,89.23
2018-03-07T04:02:47.014Z,88.95
2018-03-07T04:03:47.014Z,88.28
2018-03-07T04:04:47.023Z,88.67
2018-03-07T04:05:47.018Z,88.67
2018-03-07T04:06:47.032Z,88.67
2018-03-07T04:07:47.027Z,88.47
2018-03-07T04:08:47.039Z,88.76
2018-03-07T04:09:47.044Z,88.67
2018-03-07T04:10:47.056Z,88.57
2018-03-07T04:11:47.056Z,88.85
2018-03-07T04:12:47.045Z,88.47
2018-03-07T04:13:47.051Z,88.67
2018-03-07T04:14:47.078Z,88.57
2018-03-07T04:15:47.055Z,88.47
2018-03-07T04:16:47.067Z,88.47
2018-03-07T04:17:47.058Z,88.57
2018-03-07T04:18:47.078Z,88.47
2018-03-07T04:19:47.078Z,88.85
2018-03-07T04:20:47.076Z,88.76
2018-03-07T04:21:47.079Z,88.47
2018-03-07T04:22:47.095Z,88.67
2018-03-07T04:23:47.096Z,88.76
2018-03-07T04:24:47.121Z,88.38
2018-03-07T04:25:47.112Z,88.38
2018-03-07T04:26:47.091Z,88.28
2018-03-07T04:27:47.103Z,88.19
2018-03-07T04:28:47.111Z,88.85
2018-03-07T04:29:47.113Z,88.57
2018-03-07T04:30:47.103Z,88.57
2018-03-07T04:31:47.207Z,88.76
2018-03-07T04:32:47.136Z,89.42
2018-03-07T04:33:47.191Z,89.23
2018-03-07T04:34:47.160Z,89.23
2018-03-07T04:35:47.122Z,89.14
2018-03-07T04:36:47.127Z,88.85
2018-03-07T04:37:47.131Z,89.14
2018-03-07T04:38:47.136Z,89.23
2018-03-07T04:39:47.135Z,89.71
2018-03-07T04:40:47.147Z,89.33
2018-03-07T04:41:47.140Z,90.19
2018-03-07T04:42:47.154Z,90.09
2018-03-07T04:43:48.097Z,90.00
2018-03-07T04:44:47.153Z,90.09
2018-03-07T04:45:47.160Z,89.23
2018-03-07T04:46:47.168Z,89.33
2018-03-07T04:47:47.172Z,89.23
2018-03-07T04:48:47.171Z,89.33
2018-03-07T04:49:47.174Z,89.61
2018-03-07T04:50:47.185Z,88.95
2018-03-07T04:51:47.225Z,89.80
2018-03-07T04:52:47.241Z,89.33
2018-03-07T04:53:47.186Z,90.09
2018-03-07T04:54:47.192Z,89.42
2018-03-07T04:55:47.191Z,89.52
2018-03-07T04:56:47.196Z,90.00
2018-03-07T04:57:47.212Z,89.95
2018-03-07T04:58:47.205Z,89.80
2018-03-07T04:59:47.206Z,89.80
2018-03-07T05:00:47.209Z,89.90
2018-03-07T05:01:47.211Z,89.42
2018-03-07T05:02:47.290Z,89.61
2018-03-07T05:03:48.100Z,90.09
2018-03-07T05:04:47.219Z,89.71
2018-03-07T05:05:47.227Z,89.42
2018-03-07T05:06:47.248Z,89.61
2018-03-07T05:07:47.229Z,89.52
2018-03-07T05:08:47.238Z,89.52
2018-03-07T05:09:47.244Z,89.52
2018-03-07T05:10:47.238Z,89.61
2018-03-07T05:11:47.241Z,89.61
2018-03-07T05:12:47.246Z,89.61
2018-03-07T05:13:47.254Z,89.71
2018-03-07T05:14:47.259Z,89.90
2018-03-07T05:15:47.258Z,90.00
2018-03-07T05:16:47.267Z,89.90
2018-03-07T05:17:47.258Z,90.00
2018-03-07T05:18:47.280Z,90.00
2018-03-07T05:19:47.271Z,90.19
2018-03-07T05:20:47.271Z,89.67
2018-03-07T05:21:47.276Z,90.09
2018-03-07T05:22:47.288Z,90.09
2018-03-07T05:23:47.289Z,90.09
2018-03-07T05:24:47.294Z,90.00
2018-03-07T05:25:47.292Z,90.09
2018-03-07T05:26:47.292Z,90.09
2018-03-07T05:27:47.291Z,90.09
2018-03-07T05:28:47.346Z,89.80
2018-03-07T05:29:47.304Z,89.80
2018-03-07T05:30:47.311Z,90.00
2018-03-07T05:31:47.316Z,89.61
2018-03-07T05:32:47.328Z,90.19
2018-03-07T05:33:47.316Z,89.52
2018-03-07T05:34:47.320Z,89.52
2018-03-07T05:35:47.325Z,89.71
2018-03-07T05:36:48.818Z,89.04
2018-03-07T05:37:47.329Z,88.85
2018-03-07T05:38:47.328Z,89.33
2018-03-07T05:39:47.339Z,89.23
2018-03-07T05:40:47.336Z,88.85
2018-03-07T05:41:47.344Z,89.14
2018-03-07T05:42:47.341Z,89.14
2018-03-07T05:43:47.348Z,89.23
2018-03-07T05:44:47.345Z,88.76
2018-03-07T05:45:47.356Z,88.57
2018-03-07T05:46:47.359Z,88.47
2018-03-07T05:47:47.367Z,88.47
2018-03-07T05:48:47.359Z,88.57
2018-03-07T05:49:47.374Z,88.85
2018-03-07T05:50:47.377Z,89.14
2018-03-07T05:51:47.407Z,88.95
2018-03-07T05:52:47.388Z,89.04
2018-03-07T05:53:47.389Z,88.90
2018-03-07T05:54:47.421Z,89.23
2018-03-07T05:55:47.401Z,88.90
2018-03-07T05:56:47.407Z,89.57
2018-03-07T05:57:47.402Z,89.38
2018-03-07T05:58:47.486Z,89.57
2018-03-07T05:59:47.418Z,89.67
2018-03-07T06:00:47.440Z,89.95
2018-03-07T06:01:47.429Z,89.86
2018-03-07T06:02:47.413Z,90.05
2018-03-07T06:03:47.417Z,89.76
2018-03-07T06:04:47.425Z,90.05
2018-03-07T06:05:47.542Z,89.76
2018-03-07T06:06:47.422Z,89.38
2018-03-07T06:07:47.422Z,89.67
2018-03-07T06:08:47.432Z,89.95
2018-03-07T06:09:47.505Z,89.67
2018-03-07T06:10:47.448Z,89.95
2018-03-07T06:11:47.445Z,90.05
2018-03-07T06:12:47.444Z,89.76
2018-03-07T06:13:47.440Z,89.95
2018-03-07T06:14:47.456Z,89.47
2018-03-07T06:15:47.450Z,89.38
2018-03-07T06:16:47.455Z,89.47
2018-03-07T06:17:47.462Z,89.38
2018-03-07T06:18:47.477Z,89.28
2018-03-07T06:19:47.463Z,89.19
2018-03-07T06:20:47.470Z,89.09
2018-03-07T06:21:47.506Z,88.81
2018-03-07T06:23:40.391Z,89.00
2018-03-07T06:24:40.359Z,89.09
2018-03-07T06:26:33.355Z,88.76
2018-03-07T06:27:33.319Z,88.47
2018-03-07T06:29:26.278Z,88.85
2018-03-07T06:30:26.282Z,88.15
2018-03-07T06:32:19.263Z,88.67
2018-03-07T06:33:19.233Z,88.19
2018-03-07T06:35:12.208Z,88.28
2018-03-07T06:36:12.191Z,88.19
2018-03-07T06:38:05.203Z,88.47
2018-03-07T06:39:05.150Z,88.38
2018-03-07T06:40:58.105Z,88.19
2018-03-07T06:41:58.106Z,87.81
2018-03-07T06:43:51.084Z,87.81
2018-03-07T06:44:51.070Z,87.24
2018-03-07T06:45:51.071Z,87.43
2018-03-07T06:46:51.072Z,87.34
2018-03-07T06:47:51.126Z,88.19
2018-03-07T06:48:51.082Z,87.34
2018-03-07T06:49:51.106Z,87.90
2018-03-07T06:50:51.100Z,87.62
2018-03-07T06:51:51.101Z,87.62
2018-03-07T06:52:51.104Z,87.24
2018-03-07T06:53:51.089Z,87.71
2018-03-07T06:54:51.128Z,87.43
2018-03-07T06:55:51.112Z,87.71
2018-03-07T06:56:51.102Z,87.24
2018-03-07T06:57:51.109Z,87.71
2018-03-07T06:58:51.112Z,87.34
2018-03-07T06:59:51.117Z,87.09
2018-03-07T07:00:51.127Z,86.76
2018-03-07T07:01:51.151Z,86.38
2018-03-07T07:02:51.122Z,87.05
2018-03-07T07:04:44.141Z,87.09
2018-03-07T07:05:44.060Z,87.19
2018-03-07T07:07:37.516Z,86.80
2018-03-07T07:08:37.014Z,86.14
2018-03-07T07:10:42.755Z,86.33
2018-03-07T07:11:42.666Z,86.14
2018-03-07T07:13:35.633Z,86.33
2018-03-07T07:14:35.642Z,86.24
2018-03-07T07:16:28.621Z,85.57
2018-03-07T07:17:28.584Z,85.47
2018-03-07T07:19:21.561Z,84.85
2018-03-07T07:20:21.536Z,84.19
2018-03-07T07:21:21.546Z,84.09
2018-03-07T07:23:14.547Z,83.23
2018-03-07T07:24:14.503Z,83.09
2018-03-07T07:26:07.471Z,79.46
2018-03-07T07:27:07.468Z,77.11
2018-03-07T07:29:00.456Z,73.91
2018-03-07T07:30:00.420Z,71.46
2018-03-07T07:31:53.410Z,70.45
2018-03-07T07:32:53.378Z,68.96
2018-03-07T07:34:46.367Z,65.45
2018-03-07T07:35:46.348Z,63.89
2018-03-07T07:37:39.310Z,60.93
2018-03-07T07:38:39.323Z,61.76
2018-03-07T07:40:32.270Z,65.58
2018-03-07T07:41:32.342Z,67.65
2018-03-07T07:43:25.387Z,70.09
2018-03-07T07:44:25.442Z,71.01
2018-03-07T07:46:18.351Z,72.92
2018-03-07T07:47:18.319Z,73.55
2018-03-07T07:49:11.226Z,74.12
2018-03-07T07:50:11.231Z,73.43
2018-03-07T07:52:04.199Z,67.27
2018-03-07T07:53:04.176Z,64.25
2018-03-07T07:54:04.187Z,62.37
2018-03-07T07:55:04.196Z,60.48
2018-03-07T07:56:04.199Z,58.31
2018-03-07T07:57:04.229Z,56.90
2018-03-07T07:58:04.223Z,56.04
2018-03-07T07:59:04.222Z,54.82
2018-03-07T08:00:04.221Z,53.99
2018-03-07T08:01:04.238Z,53.41
2018-03-07T08:02:04.244Z,51.90
2018-03-07T08:03:04.250Z,51.25
2018-03-07T08:04:04.277Z,50.78
2018-03-07T08:05:04.268Z,49.72
2018-03-07T08:06:04.273Z,48.97
2018-03-07T08:07:04.286Z,49.26
2018-03-07T08:08:04.330Z,48.43
2018-03-07T08:09:04.319Z,47.66
2018-03-07T08:10:04.314Z,47.27
2018-03-07T08:11:04.325Z,47.08
2018-03-07T08:12:04.380Z,46.89
2018-03-07T08:13:04.363Z,46.50
2018-03-07T08:14:04.362Z,45.76
2018-03-07T08:15:04.372Z,45.18
2018-03-07T08:16:04.395Z,45.08
2018-03-07T08:17:04.400Z,45.18
2018-03-07T08:18:04.463Z,44.99
2018-03-07T08:19:04.424Z,45.01
2018-03-07T08:20:04.438Z,44.24
2018-03-07T08:21:04.458Z,44.05
2018-03-07T08:22:04.501Z,43.85
2018-03-07T08:23:04.483Z,43.95
2018-03-07T08:24:04.506Z,43.76
2018-03-07T08:25:04.528Z,43.84
2018-03-07T08:26:04.525Z,43.93
2018-03-07T08:27:04.541Z,43.93
2018-03-07T08:28:04.551Z,44.31
2018-03-07T08:29:04.568Z,44.68
2018-03-07T08:30:04.580Z,44.58
2018-03-07T08:31:04.623Z,44.77
2018-03-07T08:32:04.614Z,44.87
2018-03-07T08:33:04.634Z,45.15
2018-03-07T08:34:04.641Z,44.89
2018-03-07T08:35:04.664Z,44.02
2018-03-07T08:36:04.677Z,43.84
2018-03-07T08:37:04.700Z,43.93
2018-03-07T08:38:04.708Z,43.76
2018-03-07T08:39:04.735Z,43.64
2018-03-07T08:40:04.741Z,44.12
2018-03-07T08:41:04.764Z,43.93
2018-03-07T08:42:04.779Z,44.02
2018-03-07T08:43:04.797Z,44.00
2018-03-07T08:44:04.816Z,44.10
2018-03-07T08:45:04.837Z,44.96
2018-03-07T08:46:04.847Z,44.51
2018-03-07T08:47:04.868Z,44.22
2018-03-07T08:48:04.886Z,43.64
2018-03-07T08:49:04.900Z,43.57
2018-03-07T08:50:04.924Z,43.18
2018-03-07T08:51:04.945Z,42.60
2018-03-07T08:52:04.955Z,43.08
2018-03-07T08:53:04.976Z,42.68
2018-03-07T08:54:04.992Z,42.97
2018-03-07T08:55:05.650Z,43.45
2018-03-07T08:56:06.392Z,43.54
2018-03-07T08:57:05.054Z,43.54
2018-03-07T08:58:05.068Z,43.37
2018-03-07T08:59:05.247Z,43.26
2018-03-07T09:00:05.106Z,42.80
2018-03-07T09:01:05.140Z,42.89
2018-03-07T09:02:05.189Z,43.47
2018-03-07T09:03:05.201Z,43.08
2018-03-07T09:04:05.213Z,42.80
2018-03-07T09:05:05.203Z,42.80
2018-03-07T09:06:05.235Z,42.91
2018-03-07T09:07:05.241Z,42.43
2018-03-07T09:08:05.265Z,41.47
2018-03-07T09:09:05.276Z,41.20
2018-03-07T09:10:05.298Z,40.63
2018-03-07T09:11:05.336Z,40.55
2018-03-07T09:12:05.345Z,39.97
2018-03-07T09:13:05.366Z,39.59
2018-03-07T09:14:05.385Z,39.68
2018-03-07T09:15:05.405Z,39.39
2018-03-07T09:16:05.475Z,39.28
2018-03-07T09:17:05.444Z,39.28
2018-03-07T09:18:05.455Z,39.95
2018-03-07T09:19:05.498Z,40.81
2018-03-07T09:20:05.495Z,40.63
2018-03-07T09:21:05.523Z,40.24
2018-03-07T09:22:05.556Z,39.29
2018-03-07T09:23:05.556Z,39.76
2018-03-07T09:24:05.591Z,39.66
2018-03-07T09:25:05.604Z,39.76
2018-03-07T09:26:05.627Z,39.93
2018-03-07T09:27:05.646Z,40.03
2018-03-07T09:28:05.670Z,40.12
2018-03-07T09:29:05.711Z,40.49
2018-03-07T09:30:05.760Z,41.38
2018-03-07T09:31:05.727Z,40.61
2018-03-07T09:32:05.755Z,40.30
2018-03-07T09:33:05.774Z,40.49
2018-03-07T09:34:05.791Z,40.68
2018-03-07T09:35:05.821Z,40.41
2018-03-07T09:36:05.836Z,39.93
2018-03-07T09:37:05.857Z,39.74
2018-03-07T09:38:05.902Z,40.03
2018-03-07T09:39:05.904Z,39.64
2018-03-07T09:40:05.914Z,39.14
2018-03-07T09:41:06.796Z,40.30
2018-03-07T09:42:05.961Z,40.49
2018-03-07T09:43:05.989Z,40.37
2018-03-07T09:44:05.999Z,40.66
2018-03-07T09:45:06.018Z,41.41
2018-03-07T09:46:06.044Z,41.41
2018-03-07T09:47:06.069Z,41.29
2018-03-07T09:48:06.090Z,42.04
2018-03-07T09:49:06.106Z,42.54
2018-03-07T09:50:06.130Z,42.81
2018-03-07T09:51:06.158Z,42.04
2018-03-07T09:52:06.169Z,42.52
2018-03-07T09:53:06.225Z,43.17
2018-03-07T09:54:06.219Z,43.15
2018-03-07T09:55:06.244Z,43.53
2018-03-07T09:56:06.341Z,43.84
2018-03-07T09:57:06.331Z,43.55
2018-03-07T09:58:06.336Z,43.29
2018-03-07T09:59:06.314Z,42.88
2018-03-07T10:00:06.327Z,43.17
2018-03-07T10:01:06.350Z,43.17
2018-03-07T10:02:06.409Z,43.17
2018-03-07T10:03:06.409Z,43.27
2018-03-07T10:04:06.407Z,42.69
2018-03-07T10:05:06.432Z,42.79
2018-03-07T10:06:06.453Z,42.11
2018-03-07T10:07:06.523Z,42.13
2018-03-07T10:08:06.536Z,41.37
2018-03-07T10:09:06.519Z,40.70
2018-03-07T10:10:06.537Z,40.43
2018-03-07T10:11:06.583Z,40.62
2018-03-07T10:12:06.570Z,41.37
2018-03-07T10:13:06.594Z,42.43
2018-03-07T10:14:06.623Z,41.27
2018-03-07T10:15:06.633Z,40.41
2018-03-07T10:16:06.653Z,40.60
2018-03-07T10:17:06.673Z,40.72
2018-03-07T10:18:06.709Z,40.72
2018-03-07T10:19:06.736Z,39.85
2018-03-07T10:20:06.730Z,39.58
2018-03-07T10:21:06.755Z,38.74
2018-03-07T10:22:06.784Z,38.64
2018-03-07T10:23:06.790Z,38.45
2018-03-07T10:24:06.822Z,39.22
2018-03-07T10:25:06.835Z,39.03
2018-03-07T10:26:06.871Z,39.01
2018-03-07T10:27:06.902Z,39.68
2018-03-07T10:28:06.901Z,39.58
2018-03-07T10:29:06.920Z,39.51
2018-03-07T10:30:06.937Z,39.03
2018-03-07T10:31:06.952Z,39.41
2018-03-07T10:32:06.982Z,39.03
2018-03-07T10:33:06.997Z,39.51
2018-03-07T10:34:07.029Z,38.93
2018-03-07T10:35:07.053Z,38.16
2018-03-07T10:36:07.059Z,38.16
2018-03-07T10:37:07.085Z,38.07
2018-03-07T10:38:07.101Z,38.26
2018-03-07T10:39:07.122Z,38.07
2018-03-07T10:40:07.137Z,38.54
2018-03-07T10:41:07.185Z,37.79
2018-03-07T10:42:07.190Z,36.72
2018-03-07T10:43:07.209Z,36.15
2018-03-07T10:44:07.220Z,35.28
2018-03-07T10:45:07.246Z,36.43
2018-03-07T10:46:07.270Z,36.43
2018-03-07T10:47:07.298Z,35.66
2018-03-07T10:48:07.305Z,35.28
2018-03-07T10:49:07.329Z,35.57
2018-03-07T10:50:07.342Z,36.15
2018-03-07T10:51:07.363Z,35.47
2018-03-07T10:52:07.382Z,35.38
2018-03-07T10:53:07.405Z,35.93
2018-03-07T10:54:07.424Z,36.60
2018-03-07T10:55:07.444Z,36.62
2018-03-07T10:56:07.464Z,36.53
2018-03-07T10:57:07.488Z,36.82
2018-03-07T10:58:07.519Z,36.62
2018-03-07T10:59:07.515Z,36.51
2018-03-07T11:00:07.537Z,36.51
2018-03-07T11:01:07.560Z,36.41
2018-03-07T11:02:07.584Z,35.64
2018-03-07T11:03:07.593Z,35.26
2018-03-07T11:04:07.620Z,35.74
2018-03-07T11:05:07.643Z,36.01
2018-03-07T11:06:07.678Z,36.11
2018-03-07T11:07:07.680Z,36.58
2018-03-07T11:08:07.724Z,37.16
2018-03-07T11:09:07.736Z,37.26
2018-03-07T11:10:07.808Z,37.45
2018-03-07T11:11:07.785Z,36.97
2018-03-07T11:12:07.788Z,36.99
2018-03-07T11:13:07.838Z,36.80
2018-03-07T11:14:07.879Z,36.51
2018-03-07T11:15:07.864Z,36.32
2018-03-07T11:16:07.875Z,37.08
2018-03-07T11:17:07.903Z,36.99
2018-03-07T11:18:07.898Z,37.35
2018-03-07T11:19:07.934Z,37.27
2018-03-07T11:20:07.924Z,37.27
2018-03-07T11:21:08.001Z,37.37
2018-03-07T11:22:08.030Z,37.55
2018-03-07T11:23:08.038Z,37.64
2018-03-07T11:24:08.001Z,37.45
2018-03-07T11:25:08.077Z,37.45
2018-03-07T11:26:08.140Z,37.35
2018-03-07T11:27:08.128Z,37.55
2018-03-07T11:28:08.154Z,37.72
2018-03-07T11:29:08.080Z,38.29
2018-03-07T11:30:08.137Z,38.68
2018-03-07T11:31:08.116Z,38.59
2018-03-07T11:32:08.129Z,38.87
2018-03-07T11:33:08.151Z,39.16
2018-03-07T11:34:08.164Z,38.68
2018-03-07T11:35:08.185Z,38.68
2018-03-07T11:36:08.204Z,36.49
2018-03-07T11:37:08.224Z,35.24
2018-03-07T11:38:08.236Z,35.43
2018-03-07T11:39:08.252Z,36.01
2018-03-07T11:40:08.394Z,36.58
2018-03-07T11:41:09.295Z,36.58
2018-03-07T11:42:08.304Z,36.58
2018-03-07T11:43:08.317Z,37.07
2018-03-07T11:44:08.338Z,37.72
2018-03-07T11:45:08.363Z,37.91
2018-03-07T11:46:08.485Z,37.91
2018-03-07T11:47:08.395Z,38.20
2018-03-07T11:48:08.401Z,38.29
2018-03-07T11:49:08.423Z,38.29
2018-03-07T11:50:08.445Z,38.20
2018-03-07T11:51:08.460Z,37.82
2018-03-07T11:52:09.275Z,37.72
2018-03-07T11:53:08.485Z,37.72
2018-03-07T11:54:08.502Z,37.99
2018-03-07T11:55:08.537Z,39.04
2018-03-07T11:56:08.578Z,39.04
2018-03-07T11:57:08.540Z,38.85
2018-03-07T11:58:08.560Z,37.72
2018-03-07T11:59:08.579Z,36.57
2018-03-07T12:00:08.596Z,36.38
2018-03-07T12:01:08.616Z,36.47
2018-03-07T12:02:08.626Z,36.57
2018-03-07T12:03:09.284Z,36.57
2018-03-07T12:04:08.655Z,37.24
2018-03-07T12:05:08.680Z,38.09
2018-03-07T12:06:08.678Z,39.04
2018-03-07T12:07:08.700Z,39.81
2018-03-07T12:08:08.705Z,39.91
2018-03-07T12:09:08.721Z,39.62
2018-03-07T12:10:08.738Z,39.62
2018-03-07T12:11:08.752Z,39.72
2018-03-07T12:12:08.804Z,40.47
2018-03-07T12:13:08.833Z,41.52
2018-03-07T12:14:08.914Z,42.00
2018-03-07T12:15:08.815Z,42.38
2018-03-07T12:16:08.828Z,42.74
2018-03-07T12:17:08.850Z,42.46
2018-03-07T12:18:08.869Z,42.65
2018-03-07T12:19:08.885Z,43.32
2018-03-07T12:20:08.882Z,42.65
2018-03-07T12:21:08.891Z,42.46
2018-03-07T12:22:08.892Z,41.80
2018-03-07T12:23:08.922Z,42.00
2018-03-07T12:24:08.916Z,42.10
2018-03-07T12:25:08.933Z,41.90
2018-03-07T12:26:08.947Z,41.13
2018-03-07T12:27:08.956Z,41.13
2018-03-07T12:28:09.022Z,41.23
2018-03-07T12:29:08.982Z,41.33
2018-03-07T12:30:08.986Z,40.66
2018-03-07T12:31:09.000Z,40.66
2018-03-07T12:32:09.007Z,40.47
2018-03-07T12:33:09.030Z,40.56
2018-03-07T12:34:09.037Z,40.17
2018-03-07T12:35:09.046Z,40.56
2018-03-07T12:36:09.058Z,41.33
2018-03-07T12:37:09.116Z,42.07
2018-03-07T12:38:09.084Z,42.46
2018-03-07T12:39:09.094Z,42.55
2018-03-07T12:40:09.096Z,42.74
2018-03-07T12:41:09.121Z,42.84
2018-03-07T12:42:09.122Z,42.07
2018-03-07T12:43:09.129Z,41.86
2018-03-07T12:44:09.136Z,42.36
2018-03-07T12:45:09.143Z,42.27
2018-03-07T12:46:09.160Z,42.17
2018-03-07T12:47:09.167Z,42.36
2018-03-07T12:48:09.173Z,42.27
2018-03-07T12:49:09.181Z,42.17
2018-03-07T12:50:09.195Z,41.78
2018-03-07T12:51:09.210Z,41.50
2018-03-07T12:52:09.221Z,41.50
2018-03-07T12:53:09.219Z,41.28
2018-03-07T12:54:09.236Z,41.57
2018-03-07T12:55:09.251Z,41.60
2018-03-07T12:56:09.245Z,41.60
2018-03-07T12:57:09.260Z,41.50
2018-03-07T12:58:09.272Z,41.97
2018-03-07T12:59:09.310Z,42.07
2018-03-07T13:00:09.293Z,41.60
2018-03-07T13:01:09.294Z,41.40
2018-03-07T13:02:09.306Z,41.60
2018-03-07T13:03:11.292Z,41.60
2018-03-07T13:04:09.326Z,41.21
2018-03-07T13:05:09.336Z,40.73
2018-03-07T13:06:09.346Z,40.35
2018-03-07T13:07:09.351Z,40.64
2018-03-07T13:08:09.363Z,41.21
2018-03-07T13:09:09.414Z,41.21
2018-03-07T13:10:09.475Z,41.31
2018-03-07T13:11:09.391Z,41.21
2018-03-07T13:12:09.402Z,41.57
2018-03-07T13:13:09.409Z,41.96
2018-03-07T13:14:09.409Z,42.14
2018-03-07T13:15:09.428Z,41.38